Captain Ron L — WDD5492 — position and weather

sailwx.info

Track history (hours):
 
Tides and Currents Weather Stations Pressure Air Temp Water Temp Dewpoint Dewpoint Depression Visibility Wind Speed Wind Dir Waves Ship Positions

Captain Ron L

Owner: Vulcan Materials Company, Richmond, VA. More information available from US FCC via Universal Licensing System and Coast Guard Vessel Documentation Center.

Last reported at 2017-Oct-19 21:05 UTC. Time now 2017-Oct-19 23:47 UTC.
Position N 36°50' W 076°17'.

Length 16 m; draft 2.3 m.

Type: Tug. MMSI: 367159130.

Date/timePositionNaut miles runAvg speedWind from/ knotsBaromVisibWave heightAir tempDewpointWater temp
2017-Oct-19 21:05N 36°50' W 076°17'0 0.8
2017-Oct-19 21:00N 36°50' W 076°18'2 4.3
2017-Oct-19 20:30N 36°50' W 076°15'0 0.3
2017-Oct-19 20:00N 36°50' W 076°15'1 1.1
2017-Oct-19 19:30N 36°50' W 076°16'2 4.2
2017-Oct-19 19:00N 36°51' W 076°18'1 3.0
2017-Oct-19 18:30N 36°51' W 076°20'3 1.1
2017-Oct-19 15:55N 36°54' W 076°20'3 7.1
2017-Oct-19 15:30N 36°51' W 076°20'3 5.3
2017-Oct-19 15:00N 36°50' W 076°18'1 2.5
2017-Oct-19 14:30N 36°48' W 076°18'2 4.3
2017-Oct-19 14:00N 36°50' W 076°17'1 2.0
2017-Oct-19 13:30N 36°50' W 076°16'2 3.3
2017-Oct-19 13:00N 36°50' W 076°18'2 4.4
2017-Oct-19 12:30N 36°48' W 076°18'1 2.0
2017-Oct-19 12:00N 36°47' W 076°18'2 3.7
2017-Oct-19 11:30N 36°45' W 076°18'1 2.4
2017-Oct-19 11:00N 36°46' W 076°18'3 6.5
2017-Oct-19 10:30N 36°49' W 076°17'1 0.1
2017-Oct-18 20:35N 36°50' W 076°17'0 2.1
2017-Oct-18 20:31N 36°50' W 076°18'2 3.0
2017-Oct-18 20:00N 36°50' W 076°16'1 1.4
2017-Oct-18 19:30N 36°50' W 076°15'0 0.1
2017-Oct-18 19:00N 36°50' W 076°15'2 4.5
2017-Oct-18 18:30N 36°50' W 076°17'0 0.0
2017-Oct-18 18:00N 36°50' W 076°17'1 1.6
2017-Oct-18 17:30N 36°50' W 076°16'1 2.6
2017-Oct-18 16:59N 36°50' W 076°15'0 0.0
2017-Oct-18 16:30N 36°50' W 076°15'0 0.0
2017-Oct-18 15:51N 36°50' W 076°15'0 0.8
2017-Oct-18 15:21N 36°50' W 076°15'0 1.0
2017-Oct-18 15:00N 36°50' W 076°15'0 0.0
2017-Oct-18 12:36N 36°50' W 076°15'0 0.0
2017-Oct-18 12:12N 36°50' W 076°15'0 0.1
2017-Oct-18 11:51N 36°50' W 076°15'2 0.1
2017-Oct-16 19:05N 36°50' W 076°17'0 0.4
2017-Oct-16 19:00N 36°50' W 076°17'2 4.4
2017-Oct-16 18:31N 36°50' W 076°15'0 0.0
2017-Oct-16 18:01N 36°50' W 076°15'1 1.9
2017-Oct-16 17:30N 36°50' W 076°16'0 0.4
2017-Oct-16 17:00N 36°50' W 076°16'2 4.6
2017-Oct-16 16:31N 36°48' W 076°17'2 3.6
2017-Oct-16 16:01N 36°50' W 076°18'1 3.0
2017-Oct-16 15:31N 36°50' W 076°16'0 0.0
2017-Oct-16 15:00N 36°50' W 076°16'0 0.0
2017-Oct-16 14:01N 36°50' W 076°16'1 1.8
2017-Oct-16 13:30N 36°50' W 076°15'1 1.4
2017-Oct-16 12:54N 36°50' W 076°16'0 0.3
2017-Oct-16 12:31N 36°50' W 076°16'1 1.4
2017-Oct-16 12:00N 36°50' W 076°17'0 0.0
2017-Oct-16 11:30N 36°50' W 076°17'0 0.3
2017-Oct-16 11:00N 36°50' W 076°17'1 1.3
2017-Oct-16 10:30N 36°50' W 076°17'0 0.0
2017-Oct-14 18:46N 36°50' W 076°17'0 0.0
2017-Oct-14 18:30N 36°50' W 076°17'1 1.6
2017-Oct-14 18:00N 36°50' W 076°17'1 1.3
2017-Oct-14 17:30N 36°50' W 076°16'0 0.1
2017-Oct-14 17:00N 36°50' W 076°16'0 0.1
2017-Oct-14 16:30N 36°50' W 076°16'0 0.2
2017-Oct-14 16:00N 36°50' W 076°16'1 1.5
2017-Oct-14 15:28N 36°50' W 076°15'0 0.0
2017-Oct-14 15:00N 36°50' W 076°15'0 0.0
2017-Oct-14 14:30N 36°50' W 076°15'1 1.7
2017-Oct-14 14:00N 36°50' W 076°16'1 1.8
2017-Oct-14 13:30N 36°50' W 076°15'1 1.7
2017-Oct-14 13:00N 36°50' W 076°16'0 0.0
2017-Oct-14 12:30N 36°50' W 076°16'0 0.0
2017-Oct-14 12:00N 36°50' W 076°16'0 0.4
2017-Oct-14 11:30N 36°50' W 076°16'1 0.1
2017-Oct-13 19:27N 36°50' W 076°17'1 3.0
2017-Oct-13 19:00N 36°50' W 076°16'0 0.1
2017-Oct-13 18:30N 36°50' W 076°16'0 0.2
2017-Oct-13 18:00N 36°50' W 076°16'0 0.2
2017-Oct-13 17:30N 36°50' W 076°16'1 1.8
2017-Oct-13 17:00N 36°50' W 076°15'0 0.0
2017-Oct-13 16:30N 36°50' W 076°15'0 0.0
2017-Oct-13 16:00N 36°50' W 076°15'0 0.0
2017-Oct-13 15:28N 36°50' W 076°15'0 0.0
2017-Oct-13 14:59N 36°50' W 076°15'0 0.0
2017-Oct-13 14:30N 36°50' W 076°15'1 1.7
2017-Oct-13 14:00N 36°50' W 076°16'1 1.4
2017-Oct-13 13:26N 36°50' W 076°15'0 0.0
2017-Oct-13 12:22N 36°50' W 076°15'0 0.1
2017-Oct-13 12:00N 36°50' W 076°15'0 0.0
2017-Oct-13 11:30N 36°50' W 076°15'0 0.0
2017-Oct-13 11:00N 36°50' W 076°15'1 2.1
2017-Oct-13 10:30N 36°50' W 076°16'1 0.1
2017-Oct-12 20:12N 36°50' W 076°17'0 0.0
2017-Oct-12 20:00N 36°50' W 076°17'0 0.3
2017-Oct-12 19:30N 36°51' W 076°17'1 2.0
2017-Oct-12 18:53N 36°50' W 076°16'0 0.0
2017-Oct-12 18:26N 36°50' W 076°16'1 2.3
2017-Oct-12 18:00N 36°50' W 076°15'1 1.3
2017-Oct-12 17:14N 36°50' W 076°16'0 0.0
2017-Oct-12 17:00N 36°50' W 076°16'0 0.0
2017-Oct-12 16:19N 36°50' W 076°16'0 0.5
2017-Oct-12 16:00N 36°50' W 076°16'0 0.2
2017-Oct-12 15:30N 36°50' W 076°16'0 0.3
2017-Oct-12 15:00N 36°50' W 076°16'2 3.4
2017-Oct-12 14:30N 36°51' W 076°18'1 0.0
2017-Oct-11 19:20N 36°50' W 076°17'1 3.7
2017-Oct-11 18:57N 36°50' W 076°16'4 7.5
2017-Oct-11 18:28N 36°52' W 076°20'3 0.1
2017-Oct-10 20:00N 36°50' W 076°17'2 3.7
2017-Oct-10 19:24N 36°51' W 076°20'1 0.2
2017-Oct-10 14:59N 36°52' W 076°20'5 4.5
2017-Oct-10 13:58N 36°50' W 076°15'1 1.7
2017-Oct-10 13:29N 36°50' W 076°16'1 2.9
2017-Oct-10 13:00N 36°50' W 076°17'0 0.0
2017-Oct-10 12:29N 36°50' W 076°17'0 0.0
2017-Oct-10 11:59N 36°50' W 076°17'1 2.9
2017-Oct-10 11:30N 36°50' W 076°16'1 1.7
2017-Oct-10 11:00N 36°50' W 076°15'  
Track history (hours):
 
Tides and Currents Weather Stations Pressure Air Temp Water Temp Dewpoint Dewpoint Depression Visibility Wind Speed Wind Dir Waves Ship Positions

Captain Ron L

Owner: Vulcan Materials Company, Richmond, VA. More information available from US FCC via Universal Licensing System and Coast Guard Vessel Documentation Center.

Last reported at 2017-Oct-19 21:05 UTC. Time now 2017-Oct-19 23:47 UTC.
Position N 36°50' W 076°17'.

Length 16 m; draft 2.3 m.

Type: Tug. MMSI: 367159130.

Date/timePositionNaut miles runAvg speedWind from/ knotsBaromVisibWave heightAir tempDewpointWater temp
2017-Oct-19 21:05N 36°50' W 076°17'0 0.8
2017-Oct-19 21:00N 36°50' W 076°18'2 4.3
2017-Oct-19 20:30N 36°50' W 076°15'0 0.3
2017-Oct-19 20:00N 36°50' W 076°15'1 1.1
2017-Oct-19 19:30N 36°50' W 076°16'2 4.2
2017-Oct-19 19:00N 36°51' W 076°18'1 3.0
2017-Oct-19 18:30N 36°51' W 076°20'3 1.1
2017-Oct-19 15:55N 36°54' W 076°20'3 7.1
2017-Oct-19 15:30N 36°51' W 076°20'3 5.3
2017-Oct-19 15:00N 36°50' W 076°18'1 2.5
2017-Oct-19 14:30N 36°48' W 076°18'2 4.3
2017-Oct-19 14:00N 36°50' W 076°17'1 2.0
2017-Oct-19 13:30N 36°50' W 076°16'2 3.3
2017-Oct-19 13:00N 36°50' W 076°18'2 4.4
2017-Oct-19 12:30N 36°48' W 076°18'1 2.0
2017-Oct-19 12:00N 36°47' W 076°18'2 3.7
2017-Oct-19 11:30N 36°45' W 076°18'1 2.4
2017-Oct-19 11:00N 36°46' W 076°18'3 6.5
2017-Oct-19 10:30N 36°49' W 076°17'1 0.1
2017-Oct-18 20:35N 36°50' W 076°17'0 2.1
2017-Oct-18 20:31N 36°50' W 076°18'2 3.0
2017-Oct-18 20:00N 36°50' W 076°16'1 1.4
2017-Oct-18 19:30N 36°50' W 076°15'0 0.1
2017-Oct-18 19:00N 36°50' W 076°15'2 4.5
2017-Oct-18 18:30N 36°50' W 076°17'0 0.0
2017-Oct-18 18:00N 36°50' W 076°17'1 1.6
2017-Oct-18 17:30N 36°50' W 076°16'1 2.6
2017-Oct-18 16:59N 36°50' W 076°15'0 0.0
2017-Oct-18 16:30N 36°50' W 076°15'0 0.0
2017-Oct-18 15:51N 36°50' W 076°15'0 0.8
2017-Oct-18 15:21N 36°50' W 076°15'0 1.0
2017-Oct-18 15:00N 36°50' W 076°15'0 0.0
2017-Oct-18 12:36N 36°50' W 076°15'0 0.0
2017-Oct-18 12:12N 36°50' W 076°15'0 0.1
2017-Oct-18 11:51N 36°50' W 076°15'2 0.1
2017-Oct-16 19:05N 36°50' W 076°17'0 0.4
2017-Oct-16 19:00N 36°50' W 076°17'2 4.4
2017-Oct-16 18:31N 36°50' W 076°15'0 0.0
2017-Oct-16 18:01N 36°50' W 076°15'1 1.9
2017-Oct-16 17:30N 36°50' W 076°16'0 0.4
2017-Oct-16 17:00N 36°50' W 076°16'2 4.6
2017-Oct-16 16:31N 36°48' W 076°17'2 3.6
2017-Oct-16 16:01N 36°50' W 076°18'1 3.0
2017-Oct-16 15:31N 36°50' W 076°16'0 0.0
2017-Oct-16 15:00N 36°50' W 076°16'0 0.0
2017-Oct-16 14:01N 36°50' W 076°16'1 1.8
2017-Oct-16 13:30N 36°50' W 076°15'1 1.4
2017-Oct-16 12:54N 36°50' W 076°16'0 0.3
2017-Oct-16 12:31N 36°50' W 076°16'1 1.4
2017-Oct-16 12:00N 36°50' W 076°17'0 0.0
2017-Oct-16 11:30N 36°50' W 076°17'0 0.3
2017-Oct-16 11:00N 36°50' W 076°17'1 1.3
2017-Oct-16 10:30N 36°50' W 076°17'0 0.0
2017-Oct-14 18:46N 36°50' W 076°17'0 0.0
2017-Oct-14 18:30N 36°50' W 076°17'1 1.6
2017-Oct-14 18:00N 36°50' W 076°17'1 1.3
2017-Oct-14 17:30N 36°50' W 076°16'0 0.1
2017-Oct-14 17:00N 36°50' W 076°16'0 0.1
2017-Oct-14 16:30N 36°50' W 076°16'0 0.2
2017-Oct-14 16:00N 36°50' W 076°16'1 1.5
2017-Oct-14 15:28N 36°50' W 076°15'0 0.0
2017-Oct-14 15:00N 36°50' W 076°15'0 0.0
2017-Oct-14 14:30N 36°50' W 076°15'1 1.7
2017-Oct-14 14:00N 36°50' W 076°16'1 1.8
2017-Oct-14 13:30N 36°50' W 076°15'1 1.7
2017-Oct-14 13:00N 36°50' W 076°16'0 0.0
2017-Oct-14 12:30N 36°50' W 076°16'0 0.0
2017-Oct-14 12:00N 36°50' W 076°16'0 0.4
2017-Oct-14 11:30N 36°50' W 076°16'1 0.1
2017-Oct-13 19:27N 36°50' W 076°17'1 3.0
2017-Oct-13 19:00N 36°50' W 076°16'0 0.1
2017-Oct-13 18:30N 36°50' W 076°16'0 0.2
2017-Oct-13 18:00N 36°50' W 076°16'0 0.2
2017-Oct-13 17:30N 36°50' W 076°16'1 1.8
2017-Oct-13 17:00N 36°50' W 076°15'0 0.0
2017-Oct-13 16:30N 36°50' W 076°15'0 0.0
2017-Oct-13 16:00N 36°50' W 076°15'0 0.0
2017-Oct-13 15:28N 36°50' W 076°15'0 0.0
2017-Oct-13 14:59N 36°50' W 076°15'0 0.0
2017-Oct-13 14:30N 36°50' W 076°15'1 1.7
2017-Oct-13 14:00N 36°50' W 076°16'1 1.4
2017-Oct-13 13:26N 36°50' W 076°15'0 0.0
2017-Oct-13 12:22N 36°50' W 076°15'0 0.1
2017-Oct-13 12:00N 36°50' W 076°15'0 0.0
2017-Oct-13 11:30N 36°50' W 076°15'0 0.0
2017-Oct-13 11:00N 36°50' W 076°15'1 2.1
2017-Oct-13 10:30N 36°50' W 076°16'1 0.1
2017-Oct-12 20:12N 36°50' W 076°17'0 0.0
2017-Oct-12 20:00N 36°50' W 076°17'0 0.3
2017-Oct-12 19:30N 36°51' W 076°17'1 2.0
2017-Oct-12 18:53N 36°50' W 076°16'0 0.0
2017-Oct-12 18:26N 36°50' W 076°16'1 2.3
2017-Oct-12 18:00N 36°50' W 076°15'1 1.3
2017-Oct-12 17:14N 36°50' W 076°16'0 0.0
2017-Oct-12 17:00N 36°50' W 076°16'0 0.0
2017-Oct-12 16:19N 36°50' W 076°16'0 0.5
2017-Oct-12 16:00N 36°50' W 076°16'0 0.2
2017-Oct-12 15:30N 36°50' W 076°16'0 0.3
2017-Oct-12 15:00N 36°50' W 076°16'2 3.4
2017-Oct-12 14:30N 36°51' W 076°18'1 0.0
2017-Oct-11 19:20N 36°50' W 076°17'1 3.7
2017-Oct-11 18:57N 36°50' W 076°16'4 7.5
2017-Oct-11 18:28N 36°52' W 076°20'3 0.1
2017-Oct-10 20:00N 36°50' W 076°17'2 3.7
2017-Oct-10 19:24N 36°51' W 076°20'1 0.2
2017-Oct-10 14:59N 36°52' W 076°20'5 4.5
2017-Oct-10 13:58N 36°50' W 076°15'1 1.7
2017-Oct-10 13:29N 36°50' W 076°16'1 2.9
2017-Oct-10 13:00N 36°50' W 076°17'0 0.0
2017-Oct-10 12:29N 36°50' W 076°17'0 0.0
2017-Oct-10 11:59N 36°50' W 076°17'1 2.9
2017-Oct-10 11:30N 36°50' W 076°16'1 1.7
2017-Oct-10 11:00N 36°50' W 076°15'  

Dump ship's entire track history